createdAt,value
2023-05-15T06:45:18.081Z,13.1
2023-05-15T06:50:51.829Z,13.2
2023-05-15T06:56:31.912Z,13.2
2023-05-15T07:02:06.935Z,13.5
2023-05-15T07:08:08.865Z,13.8
2023-05-15T07:13:44.476Z,13.8
2023-05-15T07:19:25.557Z,14
2023-05-15T07:25:02.282Z,14
2023-05-15T07:30:38.049Z,14.2
2023-05-15T07:36:14.332Z,14.3
2023-05-15T07:41:50.351Z,14.4
2023-05-15T07:47:25.867Z,14.9
2023-05-15T07:53:05.217Z,15.1
2023-05-15T07:58:41.698Z,15.4
2023-05-15T08:04:17.373Z,15.6
2023-05-15T08:09:53.378Z,15.4
2023-05-15T08:15:30.225Z,15.9
2023-05-15T08:21:08.615Z,16.4
2023-05-15T08:26:44.865Z,16.7
2023-05-15T08:32:21.137Z,16.7
2023-05-15T08:37:56.863Z,16.5
2023-05-15T08:43:33.047Z,17.2
2023-05-15T08:49:08.849Z,17.3
2023-05-15T08:54:46.796Z,17.1
2023-05-15T09:00:24.735Z,17.6
2023-05-15T09:06:02.360Z,16.9
2023-05-15T09:11:38.487Z,16.8
2023-05-15T09:17:14.189Z,17
2023-05-15T09:22:52.974Z,17.6
2023-05-15T09:28:30.357Z,17.7
2023-05-15T09:34:06.444Z,17
2023-05-15T09:39:43.302Z,17.9
2023-05-15T09:45:43.563Z,17.6
2023-05-15T09:51:17.389Z,18.2
2023-05-15T09:56:53.971Z,19.6
2023-05-15T10:02:30.928Z,18.8
2023-05-15T10:08:16.910Z,18.8
2023-05-15T10:13:52.173Z,18.5
2023-05-15T10:19:29.528Z,19.3
2023-05-15T10:25:05.527Z,18.6
2023-05-15T10:30:41.118Z,19.3
2023-05-15T10:36:17.533Z,20.6
2023-05-15T10:41:54.922Z,20.3
2023-05-15T10:47:30.547Z,19.7
2023-05-15T10:53:07.441Z,20.7
2023-05-15T10:58:43.344Z,20.1
2023-05-15T11:04:20.882Z,20.2
2023-05-15T11:09:56.010Z,21.3
2023-05-15T11:15:33.331Z,21.6
2023-05-15T11:21:18.707Z,20.1
2023-05-15T11:26:53.980Z,18.7
2023-05-15T11:32:33.265Z,19
2023-05-15T11:38:28.151Z,21.1
2023-05-15T11:44:25.520Z,20.5
2023-05-15T11:49:59.027Z,20.9
2023-05-15T11:55:36.083Z,22
2023-05-15T12:01:11.245Z,19.4
2023-05-15T12:06:46.310Z,18.7
2023-05-15T12:12:22.965Z,19.3
2023-05-15T12:17:59.510Z,18.6
2023-05-15T12:23:36.652Z,20.1
2023-05-15T12:29:13.592Z,21.6
2023-05-15T12:34:49.972Z,18.7
2023-05-15T12:40:26.494Z,16.2
2023-05-15T12:46:28.405Z,15.7
2023-05-15T12:52:02.769Z,15.6
2023-05-15T12:57:39.360Z,15.8
2023-05-15T13:03:18.862Z,16.6
2023-05-15T13:08:55.933Z,16.3
2023-05-15T13:14:31.192Z,16.2
2023-05-15T13:20:06.769Z,17.6
2023-05-15T13:25:42.878Z,21.2
2023-05-15T13:31:18.577Z,29.5
2023-05-15T13:36:55.900Z,33.1
2023-05-15T13:42:31.354Z,26.1
2023-05-15T13:48:07.703Z,39.7
2023-05-15T13:53:52.840Z,42.6
2023-05-15T13:59:28.425Z,35.1
2023-05-15T14:05:03.567Z,28.3
2023-05-15T14:10:39.755Z,24.6
2023-05-15T14:16:17.514Z,21.4
2023-05-15T14:21:52.792Z,21
2023-05-15T14:27:28.142Z,21.7
2023-05-15T14:33:03.666Z,20.2
2023-05-15T14:38:39.240Z,19.3
2023-05-15T14:44:36.455Z,18.9
2023-05-15T14:50:09.349Z,18.4
2023-05-15T14:55:44.610Z,18
2023-05-15T15:01:20.521Z,17.9
2023-05-15T15:06:56.624Z,16.9
2023-05-15T15:12:33.712Z,16.6
2023-05-15T15:18:09.257Z,17.1
2023-05-15T15:23:45.351Z,17.6
2023-05-15T15:29:21.567Z,18.3
2023-05-15T15:34:58.247Z,18.1
2023-05-15T15:40:33.712Z,17.5
2023-05-15T15:46:09.532Z,17.4
2023-05-15T15:51:50.083Z,17.9
2023-05-15T15:57:26.552Z,18.4
2023-05-15T16:03:04.456Z,18.8
2023-05-15T16:08:42.064Z,17.7
2023-05-15T16:14:26.470Z,16.5
2023-05-15T16:20:01.267Z,16.3
2023-05-15T16:25:36.610Z,16.3
2023-05-15T16:31:12.348Z,16.6
2023-05-15T16:36:47.820Z,16.6
2023-05-15T16:42:23.526Z,16.5
2023-05-15T16:47:59.047Z,16.4
2023-05-15T16:53:35.196Z,16.1
2023-05-15T16:59:11.359Z,16.1
2023-05-15T17:04:48.366Z,15.9
2023-05-15T17:10:24.686Z,16.2
2023-05-15T17:16:14.095Z,16
2023-05-15T17:21:49.910Z,16
2023-05-15T17:27:26.072Z,15.7
2023-05-15T17:33:02.060Z,15.5
2023-05-15T17:38:38.003Z,15.4
2023-05-15T17:44:13.561Z,15.3
2023-05-15T17:49:49.314Z,17.8
2023-05-15T17:55:25.330Z,20.1
2023-05-15T18:01:02.636Z,21.5
2023-05-15T18:06:40.624Z,22.5
2023-05-15T18:12:16.216Z,21.5
2023-05-15T18:17:52.633Z,23.3
2023-05-15T18:23:29.734Z,23.9
2023-05-15T18:29:12.654Z,24.2
2023-05-15T18:34:49.217Z,18
2023-05-15T18:40:25.416Z,16.2
2023-05-15T18:46:00.824Z,15.7
2023-05-15T18:51:36.680Z,15.4
2023-05-15T18:57:12.857Z,15
2023-05-15T19:02:49.163Z,14.8
2023-05-15T19:08:25.591Z,14.4
2023-05-15T19:14:02.362Z,14.4
2023-05-15T19:19:41.317Z,14.2
2023-05-15T19:25:17.969Z,14.1
2023-05-15T19:30:53.316Z,14
2023-05-15T19:36:29.718Z,13.8
2023-05-15T19:42:13.655Z,13.7
2023-05-15T19:47:50.450Z,13.4
2023-05-15T19:53:26.395Z,13.5
2023-05-15T19:59:01.745Z,13.4
2023-05-15T20:04:38.621Z,13.3
